This is the latest recevied weather packets stored in our database for station/object SP9SVH-2. If no packets are shown the sender has not sent any weather packets the latest 10 day(s).
| Time | Temp. | Humidity | Pressure | Rain* | Wind** | Luminosity | Snow |
|---|---|---|---|---|---|---|---|
| 1777292499 | 15° C | 2% | - | 0 mm | 1.34 m/s, 298° | - | - |
| 1777290395 | 14.44° C | 3% | - | 0 mm | 0.89 m/s, 330° | - | - |
| 1777289255 | 14.44° C | 3% | - | 0 mm | 1.79 m/s, 286° | - | - |
| 1777288204 | 14.44° C | 2% | - | 0 mm | 3.13 m/s, 147° | - | - |
| 1777287035 | 13.89° C | 2% | - | 0 mm | 1.79 m/s, 255° | - | - |
| 1777286005 | 13.33° C | 3% | - | 0 mm | 2.24 m/s, 241° | - | - |
| 1777284904 | 13.33° C | 3% | - | 0 mm | 0 m/s | - | - |
| 1777283787 | 12.78° C | 3% | - | 0 mm | 0.89 m/s, 346° | - | - |
| 1777282685 | 12.78° C | 3% | - | 0 mm | 0.89 m/s, 230° | - | - |
| 1777281690 | 12.22° C | 3% | - | 0 mm | 0.89 m/s, 358° | - | - |
| 1777280671 | 12.22° C | 3% | - | 0 mm | 0.89 m/s, 252° | - | - |
| 1777279654 | 12.22° C | 3% | - | 0 mm | 0.89 m/s, 333° | - | - |
| 1777278505 | 12.22° C | 3% | - | 0 mm | 4.47 m/s, 233° | - | - |
| 1777276523 | 11.11° C | 4% | - | 0 mm | 0 m/s | - | - |
| 1777275525 | 11.11° C | 3% | - | 0 mm | 1.79 m/s, 220° | - | - |
| 1777274390 | 10.56° C | 4% | - | 0 mm | 0.45 m/s, 252° | - | - |
| 1777273390 | 10° C | 4% | - | 0 mm | 0 m/s | - | - |
| 1777272424 | 8.89° C | 5% | - | 0 mm | 0 m/s | - | - |
| 1777271430 | 6.67° C | 6% | - | 0 mm | 0.45 m/s, 289° | - | - |
| 1777270352 | 5° C | 6% | - | 0 mm | 0 m/s | - | - |
| 1777269186 | 2.78° C | 7% | - | 0 mm | 0 m/s | - | - |
| 1777268024 | 1.67° C | 7% | - | 0 mm | 0 m/s | - | - |
| 1777266883 | 1.67° C | 7% | - | 0 mm | 0 m/s | - | - |
| 1777265760 | 1.67° C | 7% | - | 0 mm | 0 m/s | - | - |
| 1777264677 | 0.56° C | 8% | - | 0 mm | 0 m/s | - | - |
* Rain latest hour (hover to see other rain measurements)
** Current wind speed in m/s (hover to see current wind gust speed)